createdAt,value
2023-04-06T00:00:48.228Z,4.73
2023-04-06T00:03:16.739Z,4.73
2023-04-06T00:05:45.461Z,4.40
2023-04-06T00:08:13.801Z,4.20
2023-04-06T00:10:42.333Z,3.93
2023-04-06T00:13:11.325Z,4.27
2023-04-06T00:15:39.599Z,4.80
2023-04-06T00:18:09.394Z,4.30
2023-04-06T00:20:37.914Z,5.23
2023-04-06T00:23:06.435Z,4.90
2023-04-06T00:25:34.806Z,4.80
2023-04-06T00:28:04.644Z,3.87
2023-04-06T00:30:33.007Z,4.83
2023-04-06T00:33:01.763Z,4.70
2023-04-06T00:35:31.652Z,4.47
2023-04-06T00:37:59.882Z,4.50
2023-04-06T00:40:29.460Z,4.60
2023-04-06T00:42:57.910Z,4.07
2023-04-06T00:45:26.226Z,4.97
2023-04-06T00:47:54.616Z,4.80
2023-04-06T00:50:23.086Z,5.10
2023-04-06T00:52:53.143Z,4.63
2023-04-06T00:55:21.523Z,4.40
2023-04-06T00:57:51.659Z,4.37
2023-04-06T01:00:20.601Z,5.10
2023-04-06T01:02:49.409Z,4.70
2023-04-06T01:05:18.221Z,4.67
2023-04-06T01:07:46.549Z,5.17
2023-04-06T01:10:25.661Z,4.87
2023-04-06T01:12:54.062Z,5.07
2023-04-06T01:15:22.897Z,4.67
2023-04-06T01:17:51.793Z,4.60
2023-04-06T01:20:20.362Z,4.13
2023-04-06T01:22:50.086Z,4.97
2023-04-06T01:25:18.765Z,5.43
2023-04-06T01:27:47.091Z,4.77
2023-04-06T01:30:15.678Z,5.53
2023-04-06T01:32:44.292Z,5.37
2023-04-06T01:35:12.672Z,5.23
2023-04-06T01:37:41.305Z,5.37
2023-04-06T01:40:12.500Z,4.73
2023-04-06T01:42:40.807Z,4.97
2023-04-06T01:45:10.093Z,5.70
2023-04-06T01:47:38.445Z,5.83
2023-04-06T01:50:07.640Z,5.27
2023-04-06T01:52:36.629Z,5.40
2023-04-06T01:55:05.839Z,5.40
2023-04-06T01:57:36.141Z,6.20
2023-04-06T02:00:04.668Z,6.03
2023-04-06T02:02:33.043Z,5.10
2023-04-06T02:05:01.450Z,5.07
2023-04-06T02:07:29.799Z,5.70
2023-04-06T02:09:58.321Z,5.47
2023-04-06T02:12:26.609Z,6.33
2023-04-06T02:14:56.629Z,5.57
2023-04-06T02:17:25.311Z,5.47
2023-04-06T02:19:53.822Z,5.40
2023-04-06T02:22:22.319Z,5.90
2023-04-06T02:24:50.762Z,5.60
2023-04-06T02:27:19.085Z,6.77
2023-04-06T02:29:48.195Z,5.60
2023-04-06T02:32:18.282Z,6.03
2023-04-06T02:34:46.633Z,6.27
2023-04-06T02:37:14.957Z,5.77
2023-04-06T02:39:44.557Z,5.90
2023-04-06T02:42:12.790Z,5.80
2023-04-06T02:44:41.432Z,6.37
2023-04-06T02:47:09.870Z,6.33
2023-04-06T02:49:39.636Z,6.30
2023-04-06T02:52:08.595Z,5.83
2023-04-06T02:54:37.259Z,5.67
2023-04-06T02:57:05.511Z,6.13
2023-04-06T02:59:34.423Z,5.77
2023-04-06T03:02:03.289Z,6.13
2023-04-06T03:04:31.707Z,6.00
2023-04-06T03:07:01.853Z,6.57
2023-04-06T03:09:30.489Z,5.80
2023-04-06T03:11:58.828Z,6.70
2023-04-06T03:14:27.649Z,5.37
2023-04-06T03:16:55.914Z,6.00
2023-04-06T03:19:24.347Z,5.97
2023-04-06T03:21:52.757Z,5.80
2023-04-06T03:24:22.583Z,5.63
2023-04-06T03:26:50.969Z,5.63
2023-04-06T03:29:19.633Z,6.57
2023-04-06T03:31:48.059Z,6.00
2023-04-06T03:34:16.640Z,6.80
2023-04-06T03:36:45.045Z,5.53
2023-04-06T03:39:13.449Z,6.40
2023-04-06T03:41:43.122Z,6.30
2023-04-06T03:44:11.875Z,5.30
2023-04-06T03:46:40.354Z,5.60
2023-04-06T03:49:08.935Z,6.20
2023-04-06T03:51:37.779Z,6.77
2023-04-06T03:54:06.843Z,6.90
2023-04-06T03:56:35.209Z,6.80
2023-04-06T03:59:05.621Z,6.80
2023-04-06T04:01:34.334Z,6.77
2023-04-06T04:04:02.675Z,6.30
2023-04-06T04:06:31.168Z,6.60
2023-04-06T04:08:59.534Z,5.70
2023-04-06T04:11:27.830Z,5.80
2023-04-06T04:13:56.667Z,7.43
2023-04-06T04:16:26.613Z,6.47
2023-04-06T04:18:54.990Z,7.20
2023-04-06T04:21:23.763Z,6.07
2023-04-06T04:23:52.450Z,6.50
2023-04-06T04:26:20.982Z,6.23
2023-04-06T04:28:49.343Z,5.23
2023-04-06T04:31:19.491Z,6.70
2023-04-06T04:33:49.129Z,5.97
2023-04-06T04:36:17.849Z,6.70
2023-04-06T04:38:46.500Z,6.20
2023-04-06T04:41:14.803Z,6.53
2023-04-06T04:43:43.193Z,6.40
2023-04-06T04:46:11.861Z,6.70
2023-04-06T04:48:40.862Z,6.30
2023-04-06T04:51:11.285Z,6.00
2023-04-06T04:53:39.846Z,5.67
2023-04-06T04:56:08.315Z,5.97
2023-04-06T04:58:37.173Z,5.97
2023-04-06T05:01:06.228Z,5.20
2023-04-06T05:03:35.556Z,5.53
2023-04-06T05:06:04.515Z,5.30
2023-04-06T05:08:34.422Z,5.23
2023-04-06T05:11:02.756Z,5.13
2023-04-06T05:13:32.570Z,4.87
2023-04-06T05:16:01.259Z,4.47
2023-04-06T05:18:29.719Z,4.30
2023-04-06T05:20:58.132Z,5.00
2023-04-06T05:23:26.833Z,4.47
2023-04-06T05:25:56.581Z,4.37
2023-04-06T05:28:25.497Z,5.07
2023-04-06T05:30:53.850Z,4.97
2023-04-06T05:33:22.263Z,5.23
2023-04-06T05:35:50.861Z,4.90
2023-04-06T05:38:19.099Z,4.27
2023-04-06T05:40:47.347Z,4.40
2023-04-06T05:43:17.143Z,4.10
2023-04-06T05:45:47.638Z,4.40
2023-04-06T05:48:16.183Z,4.57
2023-04-06T05:50:44.831Z,5.10
2023-04-06T05:53:13.486Z,4.60
2023-04-06T05:55:42.211Z,4.27
2023-04-06T05:58:12.162Z,4.10
2023-04-06T06:00:43.781Z,4.60
2023-04-06T06:03:12.464Z,4.53
2023-04-06T06:05:41.310Z,4.37
2023-04-06T06:08:10.297Z,4.37
2023-04-06T06:10:40.268Z,5.00
2023-04-06T06:13:08.724Z,4.00
2023-04-06T06:15:37.518Z,4.20
2023-04-06T06:18:07.781Z,4.03
2023-04-06T06:20:36.641Z,4.07
2023-04-06T06:23:05.685Z,3.67
2023-04-06T06:25:34.279Z,3.90
2023-04-06T06:28:03.044Z,3.93
2023-04-06T06:30:31.887Z,4.77
2023-04-06T06:33:00.314Z,4.07
2023-04-06T06:35:30.239Z,3.70
2023-04-06T06:37:58.985Z,3.20
2023-04-06T06:40:28.135Z,4.00
2023-04-06T06:42:56.790Z,3.47
2023-04-06T06:45:26.976Z,3.33
2023-04-06T06:47:55.806Z,2.73
2023-04-06T06:50:24.515Z,3.23
2023-04-06T06:52:54.908Z,3.10
2023-04-06T06:55:23.168Z,2.90
2023-04-06T06:57:51.773Z,3.50
2023-04-06T07:00:22.425Z,2.90
2023-04-06T07:02:51.693Z,3.20
2023-04-06T07:05:28.154Z,3.10
2023-04-06T07:07:59.018Z,3.07
2023-04-06T07:10:27.599Z,2.93
2023-04-06T07:12:55.914Z,2.90
2023-04-06T07:15:24.352Z,2.50
2023-04-06T07:17:53.497Z,2.87
2023-04-06T07:20:21.876Z,3.67
2023-04-06T07:22:50.578Z,3.00
2023-04-06T07:25:21.496Z,2.73
2023-04-06T07:27:52.069Z,3.03
2023-04-06T07:30:21.388Z,2.57
2023-04-06T07:32:49.689Z,3.53
2023-04-06T07:35:18.130Z,3.37
2023-04-06T07:37:46.843Z,2.60
2023-04-06T07:40:15.243Z,3.30
2023-04-06T07:42:45.025Z,2.83
2023-04-06T07:45:14.196Z,2.70
2023-04-06T07:47:42.648Z,3.00
2023-04-06T07:50:12.388Z,2.80
2023-04-06T07:52:41.295Z,3.07
2023-04-06T07:55:10.418Z,3.23
2023-04-06T07:57:39.034Z,2.57
2023-04-06T08:00:11.393Z,3.20
2023-04-06T08:02:39.894Z,2.60
2023-04-06T08:05:09.284Z,3.53
2023-04-06T08:07:37.864Z,3.00
2023-04-06T08:10:07.146Z,3.07
2023-04-06T08:12:36.836Z,2.63
2023-04-06T08:15:05.833Z,2.87
2023-04-06T08:17:36.389Z,2.40
2023-04-06T08:20:05.433Z,2.70
2023-04-06T08:22:33.727Z,2.60
2023-04-06T08:25:02.318Z,2.63
2023-04-06T08:27:30.817Z,2.70
2023-04-06T08:29:59.179Z,2.60
2023-04-06T08:32:28.015Z,2.60
2023-04-06T08:34:57.996Z,2.80
2023-04-06T08:37:26.572Z,2.37
2023-04-06T08:39:55.426Z,2.30
2023-04-06T08:42:27.299Z,2.20
2023-04-06T08:44:57.354Z,2.37
2023-04-06T08:47:25.755Z,2.10
2023-04-06T08:49:56.047Z,2.27
2023-04-06T08:52:27.574Z,2.10
2023-04-06T08:54:55.802Z,2.37
2023-04-06T08:57:24.419Z,2.20
2023-04-06T08:59:53.513Z,2.17
2023-04-06T09:02:22.811Z,2.50
2023-04-06T09:04:54.733Z,1.90
2023-04-06T09:07:23.636Z,1.97
2023-04-06T09:09:53.470Z,2.07
2023-04-06T09:12:26.160Z,2.40
2023-04-06T09:14:54.795Z,1.97
2023-04-06T09:17:24.162Z,2.20
2023-04-06T09:19:52.839Z,2.27
2023-04-06T09:22:22.249Z,2.03
2023-04-06T09:24:53.994Z,1.97
2023-04-06T09:27:32.705Z,2.20
2023-04-06T09:30:07.584Z,2.07
2023-04-06T09:32:47.897Z,1.90
2023-04-06T09:35:17.213Z,2.00
2023-04-06T09:37:46.801Z,1.97
2023-04-06T09:40:18.586Z,1.80
2023-04-06T09:42:49.017Z,1.90
2023-04-06T09:45:17.470Z,1.83
2023-04-06T09:47:47.883Z,1.90
2023-04-06T09:50:17.438Z,1.80
2023-04-06T09:52:51.055Z,1.53
2023-04-06T09:55:30.745Z,1.93
2023-04-06T09:58:06.679Z,1.93
2023-04-06T10:00:42.430Z,1.60
2023-04-06T10:03:19.848Z,1.70
2023-04-06T10:05:54.511Z,1.70
2023-04-06T10:08:26.571Z,1.70
2023-04-06T10:10:56.743Z,1.87
2023-04-06T10:13:26.772Z,1.70
2023-04-06T10:15:56.900Z,2.23
2023-04-06T10:18:25.666Z,1.60
2023-04-06T10:20:58.754Z,1.73
2023-04-06T10:23:37.020Z,1.90
2023-04-06T10:26:08.258Z,1.90
2023-04-06T10:28:37.820Z,1.90
2023-04-06T10:31:08.576Z,1.80
2023-04-06T10:33:37.369Z,1.60
2023-04-06T10:36:16.186Z,1.77
2023-04-06T10:38:44.935Z,1.90
2023-04-06T10:41:15.202Z,1.63
2023-04-06T10:43:44.053Z,1.77
2023-04-06T10:46:13.154Z,1.77
2023-04-06T10:48:42.450Z,1.73
2023-04-06T10:51:12.370Z,1.90
2023-04-06T10:53:42.647Z,1.83
2023-04-06T10:56:15.027Z,1.70
2023-04-06T10:58:47.950Z,1.60
2023-04-06T11:01:18.522Z,1.70
2023-04-06T11:03:47.900Z,1.67
2023-04-06T11:06:23.686Z,1.60
2023-04-06T11:08:52.528Z,1.60
2023-04-06T11:11:24.524Z,1.70
2023-04-06T11:13:55.091Z,1.80
2023-04-06T11:16:24.592Z,1.77
2023-04-06T11:18:55.207Z,1.90
2023-04-06T11:21:34.861Z,2.40
2023-04-06T11:24:10.500Z,2.03
2023-04-06T11:26:45.999Z,1.60
2023-04-06T11:29:15.305Z,1.50
2023-04-06T11:31:45.465Z,1.50
2023-04-06T11:34:19.784Z,1.53
2023-04-06T11:36:49.640Z,1.97
2023-04-06T11:39:22.058Z,2.10
2023-04-06T11:41:52.373Z,1.77
2023-04-06T11:44:33.946Z,1.40
2023-04-06T11:47:03.286Z,1.50
2023-04-06T11:49:31.722Z,1.77
2023-04-06T11:52:01.012Z,1.60
2023-04-06T11:54:33.583Z,1.70
2023-04-06T11:57:05.204Z,1.50
2023-04-06T11:59:34.233Z,1.37
2023-04-06T12:02:04.274Z,1.73
2023-04-06T12:04:33.236Z,1.43
2023-04-06T12:07:01.544Z,1.50
2023-04-06T12:09:30.011Z,1.20
2023-04-06T12:11:58.477Z,1.37
2023-04-06T12:14:28.364Z,2.03
2023-04-06T12:16:56.685Z,1.80
2023-04-06T12:19:26.839Z,1.70
2023-04-06T12:21:56.035Z,1.90
2023-04-06T12:24:24.348Z,1.60
2023-04-06T12:26:59.467Z,1.90
2023-04-06T12:29:32.688Z,1.60
2023-04-06T12:32:02.616Z,1.57
2023-04-06T12:34:31.221Z,1.60
2023-04-06T12:37:00.677Z,1.90
2023-04-06T12:39:30.124Z,1.40
2023-04-06T12:41:58.751Z,1.10
2023-04-06T12:44:27.296Z,1.40
2023-04-06T12:46:57.477Z,1.13
2023-04-06T12:49:25.991Z,1.33
2023-04-06T12:51:54.345Z,1.53
2023-04-06T12:54:22.753Z,1.50
2023-04-06T12:56:51.430Z,1.87
2023-04-06T12:59:19.962Z,1.50
2023-04-06T13:01:48.739Z,1.70
2023-04-06T13:04:18.572Z,1.57
2023-04-06T13:06:46.976Z,1.53
2023-04-06T13:09:15.870Z,1.60
2023-04-06T13:11:44.155Z,1.80
2023-04-06T13:14:12.613Z,1.80
2023-04-06T13:16:41.657Z,1.90
2023-04-06T13:19:09.992Z,2.03
2023-04-06T13:21:39.869Z,1.30
2023-04-06T13:24:08.517Z,1.63
2023-04-06T13:26:37.028Z,1.67
2023-04-06T13:29:05.491Z,2.00
2023-04-06T13:31:33.909Z,1.57
2023-04-06T13:34:02.298Z,1.90
2023-04-06T13:36:31.575Z,2.20
2023-04-06T13:39:01.840Z,2.20
2023-04-06T13:41:30.191Z,2.20
2023-04-06T13:43:58.942Z,1.80
2023-04-06T13:46:29.218Z,2.00
2023-04-06T13:48:57.466Z,1.70
2023-04-06T13:51:27.599Z,1.60
2023-04-06T13:53:56.639Z,1.80
2023-04-06T13:56:26.365Z,1.90
2023-04-06T13:58:57.574Z,1.90
2023-04-06T14:01:27.660Z,2.07
2023-04-06T14:03:56.901Z,1.90
2023-04-06T14:06:31.168Z,2.47
2023-04-06T14:09:00.838Z,2.33
2023-04-06T14:11:30.825Z,2.10
2023-04-06T14:13:58.985Z,2.17
2023-04-06T14:16:27.663Z,2.10
2023-04-06T14:18:56.233Z,2.17
2023-04-06T14:21:24.493Z,2.07
2023-04-06T14:23:53.610Z,1.83
2023-04-06T14:26:21.990Z,2.50
2023-04-06T14:28:51.627Z,2.63
2023-04-06T14:31:20.358Z,2.17
2023-04-06T14:33:48.836Z,1.80
2023-04-06T14:36:17.620Z,2.00
2023-04-06T14:38:47.611Z,2.27
2023-04-06T14:41:19.419Z,2.47
2023-04-06T14:43:48.741Z,2.10
2023-04-06T14:46:18.977Z,2.53
2023-04-06T14:48:47.530Z,2.27
2023-04-06T14:51:16.276Z,2.07
2023-04-06T14:53:44.738Z,2.00
2023-04-06T14:56:13.524Z,2.20
2023-04-06T14:58:41.985Z,2.10
2023-04-06T15:01:10.239Z,2.07
2023-04-06T15:03:40.251Z,2.17
2023-04-06T15:06:16.154Z,2.03
2023-04-06T15:08:44.985Z,2.13
2023-04-06T15:11:13.751Z,2.07
2023-04-06T15:13:42.652Z,2.20
2023-04-06T15:16:11.580Z,2.23
2023-04-06T15:18:41.399Z,2.40
2023-04-06T15:21:09.604Z,2.30
2023-04-06T15:23:37.849Z,2.30
2023-04-06T15:26:06.598Z,2.63
2023-04-06T15:28:34.739Z,2.00
2023-04-06T15:31:07.075Z,1.97
2023-04-06T15:33:35.863Z,2.27
2023-04-06T15:36:12.790Z,2.20
2023-04-06T15:38:41.587Z,2.47
2023-04-06T15:41:11.361Z,2.00
2023-04-06T15:43:41.004Z,2.00
2023-04-06T15:46:09.286Z,1.93
2023-04-06T15:48:37.515Z,2.23
2023-04-06T15:51:07.425Z,2.10
2023-04-06T15:53:37.548Z,1.90
2023-04-06T15:56:09.777Z,2.30
2023-04-06T15:58:38.403Z,1.83
2023-04-06T16:01:14.418Z,2.20
2023-04-06T16:03:43.215Z,2.30
2023-04-06T16:06:13.263Z,1.67
2023-04-06T16:08:42.469Z,1.90
2023-04-06T16:11:11.343Z,1.87
2023-04-06T16:13:40.437Z,2.20
2023-04-06T16:16:11.020Z,2.00
2023-04-06T16:18:39.645Z,2.53
2023-04-06T16:21:07.834Z,2.60
2023-04-06T16:23:37.415Z,2.33
2023-04-06T16:26:13.325Z,2.57
2023-04-06T16:28:41.734Z,2.47
2023-04-06T16:31:22.169Z,2.73
2023-04-06T16:33:51.260Z,2.57
2023-04-06T16:36:24.201Z,2.57
2023-04-06T16:38:54.128Z,2.57
2023-04-06T16:41:22.606Z,2.53
2023-04-06T16:43:51.047Z,2.67
2023-04-06T16:46:19.643Z,2.43
2023-04-06T16:48:48.058Z,2.10
2023-04-06T16:51:18.763Z,2.87
2023-04-06T16:53:48.364Z,2.10
2023-04-06T16:56:18.478Z,2.13
2023-04-06T16:58:47.167Z,2.50
2023-04-06T17:01:22.278Z,2.90
2023-04-06T17:03:51.426Z,2.20
2023-04-06T17:06:20.377Z,2.50
2023-04-06T17:08:49.905Z,2.60
2023-04-06T17:11:25.511Z,2.40
2023-04-06T17:13:56.782Z,2.40
2023-04-06T17:16:26.498Z,2.80
2023-04-06T17:18:57.115Z,2.03
2023-04-06T17:21:26.535Z,2.60
2023-04-06T17:23:55.224Z,2.70
2023-04-06T17:26:24.841Z,2.23
2023-04-06T17:28:53.282Z,2.67
2023-04-06T17:31:22.509Z,2.30
2023-04-06T17:33:51.387Z,2.37
2023-04-06T17:36:21.902Z,2.60
2023-04-06T17:38:50.659Z,2.50
2023-04-06T17:41:19.313Z,2.07
2023-04-06T17:43:49.498Z,2.47
2023-04-06T17:46:17.716Z,2.37
2023-04-06T17:48:47.087Z,3.10
2023-04-06T17:51:19.207Z,2.43
2023-04-06T17:53:47.565Z,3.67
2023-04-06T17:56:16.075Z,3.17
2023-04-06T17:58:44.252Z,6.10
2023-04-06T18:01:14.744Z,3.10
2023-04-06T18:03:43.336Z,2.90
2023-04-06T18:06:13.345Z,3.47
2023-04-06T18:08:42.413Z,3.00
2023-04-06T18:11:16.296Z,3.03
2023-04-06T18:13:44.648Z,2.83
2023-04-06T18:16:14.395Z,2.97
2023-04-06T18:18:42.851Z,2.90
2023-04-06T18:21:11.474Z,3.30
2023-04-06T18:23:39.787Z,3.20
2023-04-06T18:26:15.733Z,3.20
2023-04-06T18:28:43.944Z,3.20
2023-04-06T18:31:13.689Z,3.07
2023-04-06T18:33:41.944Z,3.00
2023-04-06T18:36:11.601Z,2.60
2023-04-06T18:38:43.568Z,2.50
2023-04-06T18:41:11.841Z,2.60
2023-04-06T18:43:40.342Z,2.83
2023-04-06T18:46:15.130Z,2.80
2023-04-06T18:48:44.018Z,2.40
2023-04-06T18:51:12.338Z,2.50
2023-04-06T18:53:41.312Z,2.47
2023-04-06T18:56:16.464Z,2.70
2023-04-06T18:58:45.886Z,3.03
2023-04-06T19:01:23.236Z,2.97
2023-04-06T19:03:52.899Z,4.13
2023-04-06T19:06:21.777Z,4.57
2023-04-06T19:08:50.630Z,4.87
2023-04-06T19:11:20.142Z,4.80
2023-04-06T19:13:50.255Z,4.77
2023-04-06T19:16:18.984Z,5.20
2023-04-06T19:18:48.847Z,5.57
2023-04-06T19:21:17.911Z,5.90
2023-04-06T19:23:46.239Z,5.67
2023-04-06T19:26:15.261Z,3.57
2023-04-06T19:28:43.883Z,2.80
2023-04-06T19:31:14.873Z,3.00
2023-04-06T19:33:43.639Z,3.17
2023-04-06T19:36:13.707Z,3.23
2023-04-06T19:38:42.161Z,3.17
2023-04-06T19:41:10.576Z,3.47
2023-04-06T19:43:38.943Z,3.50
2023-04-06T19:46:08.926Z,2.90
2023-04-06T19:48:37.840Z,2.83
2023-04-06T19:51:06.978Z,3.10
2023-04-06T19:53:37.663Z,2.80
2023-04-06T19:56:05.977Z,3.10
2023-04-06T19:58:34.880Z,3.80
2023-04-06T20:01:04.399Z,3.40
2023-04-06T20:03:32.920Z,3.63
2023-04-06T20:06:01.661Z,3.30
2023-04-06T20:08:29.910Z,3.33
2023-04-06T20:11:03.822Z,2.80
2023-04-06T20:13:32.028Z,3.00
2023-04-06T20:16:00.155Z,3.07
2023-04-06T20:18:28.634Z,3.00
2023-04-06T20:20:56.865Z,2.70
2023-04-06T20:23:25.128Z,2.90
2023-04-06T20:25:53.513Z,3.40
2023-04-06T20:28:23.885Z,2.87
2023-04-06T20:30:53.333Z,3.30
2023-04-06T20:33:22.490Z,3.20
2023-04-06T20:35:57.933Z,3.20
2023-04-06T20:38:33.228Z,3.07
2023-04-06T20:41:02.592Z,3.07
2023-04-06T20:43:32.544Z,2.67
2023-04-06T20:46:02.323Z,2.80
2023-04-06T20:48:33.701Z,2.83
2023-04-06T20:51:03.231Z,3.60
2023-04-06T20:53:31.784Z,2.90
2023-04-06T20:56:02.117Z,3.17
2023-04-06T20:58:32.139Z,2.90
2023-04-06T21:01:00.526Z,2.93
2023-04-06T21:03:29.221Z,2.63
2023-04-06T21:05:59.959Z,3.00
2023-04-06T21:08:28.258Z,2.67
2023-04-06T21:10:56.878Z,2.70
2023-04-06T21:13:25.386Z,2.83
2023-04-06T21:15:56.206Z,3.30
2023-04-06T21:18:25.296Z,3.00
2023-04-06T21:20:53.588Z,2.93
2023-04-06T21:23:22.963Z,2.90
2023-04-06T21:25:52.136Z,3.00
2023-04-06T21:28:20.468Z,3.30
2023-04-06T21:30:48.748Z,2.90
2023-04-06T21:33:19.163Z,3.00
2023-04-06T21:35:47.364Z,3.43
2023-04-06T21:38:15.850Z,2.43
2023-04-06T21:40:44.409Z,3.00
2023-04-06T21:43:12.595Z,3.23
2023-04-06T21:45:40.821Z,3.60
2023-04-06T21:48:09.375Z,3.90
2023-04-06T21:50:42.013Z,4.53
2023-04-06T21:53:10.826Z,3.50
2023-04-06T21:55:44.128Z,3.47
2023-04-06T21:58:13.166Z,4.03
2023-04-06T22:00:41.923Z,3.40
2023-04-06T22:03:10.355Z,2.90
2023-04-06T22:05:39.446Z,3.40
2023-04-06T22:08:15.180Z,2.70
2023-04-06T22:10:46.534Z,3.20
2023-04-06T22:13:15.219Z,2.83
2023-04-06T22:15:43.437Z,2.63
2023-04-06T22:18:12.197Z,2.37
2023-04-06T22:20:40.465Z,2.20
2023-04-06T22:23:10.004Z,2.67
2023-04-06T22:25:38.951Z,2.40
2023-04-06T22:28:07.235Z,2.10
2023-04-06T22:30:35.394Z,2.50
2023-04-06T22:33:03.935Z,2.53
2023-04-06T22:35:32.341Z,2.70
2023-04-06T22:38:01.256Z,2.23
2023-04-06T22:40:31.041Z,1.87
2023-04-06T22:42:59.262Z,2.30
2023-04-06T22:45:27.602Z,2.40
2023-04-06T22:47:56.024Z,2.20
2023-04-06T22:50:24.726Z,2.27
2023-04-06T22:52:53.035Z,1.97
2023-04-06T22:55:21.488Z,2.17
2023-04-06T22:57:51.134Z,2.60
2023-04-06T23:00:19.555Z,2.60
2023-04-06T23:02:47.954Z,2.30
2023-04-06T23:05:16.383Z,2.50
2023-04-06T23:07:44.502Z,2.50
2023-04-06T23:10:12.937Z,2.07
2023-04-06T23:12:41.071Z,2.27
2023-04-06T23:15:11.761Z,2.33
2023-04-06T23:17:40.419Z,2.40
2023-04-06T23:20:09.496Z,1.97
2023-04-06T23:22:38.529Z,2.60
2023-04-06T23:25:08.150Z,2.20
2023-04-06T23:27:36.335Z,2.43
2023-04-06T23:30:04.966Z,2.10
2023-04-06T23:32:35.423Z,2.30
2023-04-06T23:35:03.972Z,2.13
2023-04-06T23:37:32.088Z,2.40
2023-04-06T23:40:01.960Z,2.60
2023-04-06T23:42:30.083Z,2.10
2023-04-06T23:44:58.353Z,2.43
2023-04-06T23:47:26.783Z,2.20
2023-04-06T23:49:56.437Z,2.20
2023-04-06T23:52:24.688Z,2.10
2023-04-06T23:54:53.915Z,2.13
2023-04-06T23:57:22.092Z,2.80
2023-04-06T23:59:50.423Z,2.43
